sensor_id;sensor_type;location;lat;lon;timestamp;temperature;humidity
38582;DHT22;24349;53.720;10.014;2023-09-07T00:00:49;19.80;99.90
38582;DHT22;24349;53.720;10.014;2023-09-07T00:03:15;19.80;99.90
38582;DHT22;24349;53.720;10.014;2023-09-07T00:05:41;19.80;99.90
38582;DHT22;24349;53.720;10.014;2023-09-07T00:08:07;19.80;99.90
38582;DHT22;24349;53.720;10.014;2023-09-07T00:10:33;19.70;99.90
38582;DHT22;24349;53.720;10.014;2023-09-07T00:13:02;19.70;99.90
38582;DHT22;24349;53.720;10.014;2023-09-07T00:15:29;19.70;99.90
38582;DHT22;24349;53.720;10.014;2023-09-07T00:17:56;19.70;99.90
38582;DHT22;24349;53.720;10.014;2023-09-07T00:20:22;19.70;99.90
38582;DHT22;24349;53.720;10.014;2023-09-07T00:22:49;19.70;99.90
38582;DHT22;24349;53.720;10.014;2023-09-07T00:25:14;19.70;99.90
38582;DHT22;24349;53.720;10.014;2023-09-07T00:27:40;19.60;99.90
38582;DHT22;24349;53.720;10.014;2023-09-07T00:30:06;19.60;99.90
38582;DHT22;24349;53.720;10.014;2023-09-07T00:32:36;19.70;99.90
38582;DHT22;24349;53.720;10.014;2023-09-07T00:35:02;19.70;99.90
38582;DHT22;24349;53.720;10.014;2023-09-07T00:37:27;19.70;99.90
38582;DHT22;24349;53.720;10.014;2023-09-07T00:39:53;19.60;99.90
38582;DHT22;24349;53.720;10.014;2023-09-07T00:42:19;19.60;99.90
38582;DHT22;24349;53.720;10.014;2023-09-07T00:44:44;19.60;99.90
38582;DHT22;24349;53.720;10.014;2023-09-07T00:47:10;19.60;99.90
38582;DHT22;24349;53.720;10.014;2023-09-07T00:49:36;19.60;99.90
38582;DHT22;24349;53.720;10.014;2023-09-07T00:52:01;19.60;99.90
38582;DHT22;24349;53.720;10.014;2023-09-07T00:54:28;19.50;99.90
38582;DHT22;24349;53.720;10.014;2023-09-07T00:56:55;19.40;99.90
38582;DHT22;24349;53.720;10.014;2023-09-07T00:59:21;19.40;99.90
38582;DHT22;24349;53.720;10.014;2023-09-07T01:01:47;19.40;99.90
38582;DHT22;24349;53.720;10.014;2023-09-07T01:04:14;19.30;99.90
38582;DHT22;24349;53.720;10.014;2023-09-07T01:06:45;19.30;99.90
38582;DHT22;24349;53.720;10.014;2023-09-07T01:09:20;19.30;99.90
38582;DHT22;24349;53.720;10.014;2023-09-07T01:11:46;19.20;99.90
38582;DHT22;24349;53.720;10.014;2023-09-07T01:14:12;19.20;99.90
38582;DHT22;24349;53.720;10.014;2023-09-07T01:16:37;19.10;99.90
38582;DHT22;24349;53.720;10.014;2023-09-07T01:19:08;19.10;99.90
38582;DHT22;24349;53.720;10.014;2023-09-07T01:21:36;19.00;99.90
38582;DHT22;24349;53.720;10.014;2023-09-07T01:24:06;19.00;99.90
38582;DHT22;24349;53.720;10.014;2023-09-07T01:26:31;18.90;99.90
38582;DHT22;24349;53.720;10.014;2023-09-07T01:28:57;18.90;99.90
38582;DHT22;24349;53.720;10.014;2023-09-07T01:31:23;18.90;99.90
38582;DHT22;24349;53.720;10.014;2023-09-07T01:33:48;18.90;99.90
38582;DHT22;24349;53.720;10.014;2023-09-07T01:36:14;18.90;99.90
38582;DHT22;24349;53.720;10.014;2023-09-07T01:38:40;18.80;99.90
38582;DHT22;24349;53.720;10.014;2023-09-07T01:41:05;18.80;99.90
38582;DHT22;24349;53.720;10.014;2023-09-07T01:43:31;18.80;99.90
38582;DHT22;24349;53.720;10.014;2023-09-07T01:45:57;18.70;99.90
38582;DHT22;24349;53.720;10.014;2023-09-07T01:48:22;18.60;99.90
38582;DHT22;24349;53.720;10.014;2023-09-07T01:50:52;18.60;99.90
38582;DHT22;24349;53.720;10.014;2023-09-07T01:53:20;18.70;99.90
38582;DHT22;24349;53.720;10.014;2023-09-07T01:55:46;18.60;99.90
38582;DHT22;24349;53.720;10.014;2023-09-07T01:58:13;18.60;99.90
38582;DHT22;24349;53.720;10.014;2023-09-07T02:00:39;18.70;99.90
38582;DHT22;24349;53.720;10.014;2023-09-07T02:03:05;18.70;99.90
38582;DHT22;24349;53.720;10.014;2023-09-07T02:05:31;18.70;99.90
38582;DHT22;24349;53.720;10.014;2023-09-07T02:07:58;18.60;99.90
38582;DHT22;24349;53.720;10.014;2023-09-07T02:10:24;18.60;99.90
38582;DHT22;24349;53.720;10.014;2023-09-07T02:12:49;18.60;99.90
38582;DHT22;24349;53.720;10.014;2023-09-07T02:15:15;18.60;99.90
38582;DHT22;24349;53.720;10.014;2023-09-07T02:17:41;18.60;99.90
38582;DHT22;24349;53.720;10.014;2023-09-07T02:20:10;18.60;99.90
38582;DHT22;24349;53.720;10.014;2023-09-07T02:22:37;18.60;99.90
38582;DHT22;24349;53.720;10.014;2023-09-07T02:25:03;18.60;99.90
38582;DHT22;24349;53.720;10.014;2023-09-07T02:27:31;18.60;99.90
38582;DHT22;24349;53.720;10.014;2023-09-07T02:29:57;18.60;99.90
38582;DHT22;24349;53.720;10.014;2023-09-07T02:32:23;18.60;99.90
38582;DHT22;24349;53.720;10.014;2023-09-07T02:34:48;18.60;99.90
38582;DHT22;24349;53.720;10.014;2023-09-07T02:37:14;18.60;99.90
38582;DHT22;24349;53.720;10.014;2023-09-07T02:39:41;18.40;99.90
38582;DHT22;24349;53.720;10.014;2023-09-07T02:42:07;18.30;99.90
38582;DHT22;24349;53.720;10.014;2023-09-07T02:44:33;18.30;99.90
38582;DHT22;24349;53.720;10.014;2023-09-07T02:46:58;18.30;99.90
38582;DHT22;24349;53.720;10.014;2023-09-07T02:49:24;18.20;99.90
38582;DHT22;24349;53.720;10.014;2023-09-07T02:51:50;18.10;99.90
38582;DHT22;24349;53.720;10.014;2023-09-07T02:54:15;18.10;99.90
38582;DHT22;24349;53.720;10.014;2023-09-07T02:56:41;18.10;99.90
38582;DHT22;24349;53.720;10.014;2023-09-07T02:59:06;18.00;99.90
38582;DHT22;24349;53.720;10.014;2023-09-07T03:01:32;18.10;99.90
38582;DHT22;24349;53.720;10.014;2023-09-07T03:03:58;18.10;99.90
38582;DHT22;24349;53.720;10.014;2023-09-07T03:06:23;18.10;99.90
38582;DHT22;24349;53.720;10.014;2023-09-07T03:08:49;18.00;99.90
38582;DHT22;24349;53.720;10.014;2023-09-07T03:11:14;18.00;99.90
38582;DHT22;24349;53.720;10.014;2023-09-07T03:13:40;18.00;99.90
38582;DHT22;24349;53.720;10.014;2023-09-07T03:16:07;18.00;99.90
38582;DHT22;24349;53.720;10.014;2023-09-07T03:18:33;18.00;99.90
38582;DHT22;24349;53.720;10.014;2023-09-07T03:21:00;18.00;99.90
38582;DHT22;24349;53.720;10.014;2023-09-07T03:23:28;18.00;99.90
38582;DHT22;24349;53.720;10.014;2023-09-07T03:25:53;18.00;99.90
38582;DHT22;24349;53.720;10.014;2023-09-07T03:28:19;18.00;99.90
38582;DHT22;24349;53.720;10.014;2023-09-07T03:30:45;18.00;99.90
38582;DHT22;24349;53.720;10.014;2023-09-07T03:33:10;18.00;99.90
38582;DHT22;24349;53.720;10.014;2023-09-07T03:35:36;18.00;99.90
38582;DHT22;24349;53.720;10.014;2023-09-07T03:38:03;18.00;99.90
38582;DHT22;24349;53.720;10.014;2023-09-07T03:40:29;18.00;99.90
38582;DHT22;24349;53.720;10.014;2023-09-07T03:42:54;18.00;99.90
38582;DHT22;24349;53.720;10.014;2023-09-07T03:45:20;18.00;99.90
38582;DHT22;24349;53.720;10.014;2023-09-07T03:47:46;18.00;99.90
38582;DHT22;24349;53.720;10.014;2023-09-07T03:50:11;18.00;99.90
38582;DHT22;24349;53.720;10.014;2023-09-07T03:52:37;18.00;99.90
38582;DHT22;24349;53.720;10.014;2023-09-07T03:55:03;17.90;99.90
38582;DHT22;24349;53.720;10.014;2023-09-07T03:57:29;17.90;99.90
38582;DHT22;24349;53.720;10.014;2023-09-07T03:59:57;17.90;99.90
38582;DHT22;24349;53.720;10.014;2023-09-07T04:02:23;17.90;99.90
38582;DHT22;24349;53.720;10.014;2023-09-07T04:04:50;17.80;99.90
38582;DHT22;24349;53.720;10.014;2023-09-07T04:07:16;17.80;99.90
38582;DHT22;24349;53.720;10.014;2023-09-07T04:09:42;17.80;99.90
38582;DHT22;24349;53.720;10.014;2023-09-07T04:12:09;17.70;99.90
38582;DHT22;24349;53.720;10.014;2023-09-07T04:14:34;17.70;99.90
38582;DHT22;24349;53.720;10.014;2023-09-07T04:17:00;17.70;99.90
38582;DHT22;24349;53.720;10.014;2023-09-07T04:19:26;17.70;99.90
38582;DHT22;24349;53.720;10.014;2023-09-07T04:21:52;17.70;99.90
38582;DHT22;24349;53.720;10.014;2023-09-07T04:24:17;17.70;99.90
38582;DHT22;24349;53.720;10.014;2023-09-07T04:26:43;17.70;99.90
38582;DHT22;24349;53.720;10.014;2023-09-07T04:29:09;17.70;99.90
38582;DHT22;24349;53.720;10.014;2023-09-07T04:31:35;17.70;99.90
38582;DHT22;24349;53.720;10.014;2023-09-07T04:34:01;17.70;99.90
38582;DHT22;24349;53.720;10.014;2023-09-07T04:36:28;17.70;99.90
38582;DHT22;24349;53.720;10.014;2023-09-07T04:38:54;17.70;99.90
38582;DHT22;24349;53.720;10.014;2023-09-07T04:41:19;17.70;99.90
38582;DHT22;24349;53.720;10.014;2023-09-07T04:43:45;17.70;99.90
38582;DHT22;24349;53.720;10.014;2023-09-07T04:46:12;17.70;99.90
38582;DHT22;24349;53.720;10.014;2023-09-07T04:48:38;17.80;99.90
38582;DHT22;24349;53.720;10.014;2023-09-07T04:51:07;17.80;99.90
38582;DHT22;24349;53.720;10.014;2023-09-07T04:53:36;17.70;99.90
38582;DHT22;24349;53.720;10.014;2023-09-07T04:56:02;17.80;99.90
38582;DHT22;24349;53.720;10.014;2023-09-07T04:58:28;17.80;99.90
38582;DHT22;24349;53.720;10.014;2023-09-07T05:01:00;17.80;99.90
38582;DHT22;24349;53.720;10.014;2023-09-07T05:03:26;17.80;99.90
38582;DHT22;24349;53.720;10.014;2023-09-07T05:05:53;17.80;99.90
38582;DHT22;24349;53.720;10.014;2023-09-07T05:08:19;17.80;99.90
38582;DHT22;24349;53.720;10.014;2023-09-07T05:10:45;17.80;99.90
38582;DHT22;24349;53.720;10.014;2023-09-07T05:13:10;17.80;99.90
38582;DHT22;24349;53.720;10.014;2023-09-07T05:15:36;17.80;99.90
38582;DHT22;24349;53.720;10.014;2023-09-07T05:18:01;17.80;99.90
38582;DHT22;24349;53.720;10.014;2023-09-07T05:20:30;17.90;99.90
38582;DHT22;24349;53.720;10.014;2023-09-07T05:22:56;17.90;99.90
38582;DHT22;24349;53.720;10.014;2023-09-07T05:25:22;18.00;99.90
38582;DHT22;24349;53.720;10.014;2023-09-07T05:27:48;18.00;99.90
38582;DHT22;24349;53.720;10.014;2023-09-07T05:30:14;18.10;99.90
38582;DHT22;24349;53.720;10.014;2023-09-07T05:32:40;18.10;99.90
38582;DHT22;24349;53.720;10.014;2023-09-07T05:35:07;18.20;99.90
38582;DHT22;24349;53.720;10.014;2023-09-07T05:37:33;18.20;99.90
38582;DHT22;24349;53.720;10.014;2023-09-07T05:39:58;18.30;99.90
38582;DHT22;24349;53.720;10.014;2023-09-07T05:42:24;18.30;99.90
38582;DHT22;24349;53.720;10.014;2023-09-07T05:44:51;18.40;99.90
38582;DHT22;24349;53.720;10.014;2023-09-07T05:47:17;18.60;99.90
38582;DHT22;24349;53.720;10.014;2023-09-07T05:49:43;18.70;99.90
38582;DHT22;24349;53.720;10.014;2023-09-07T05:52:08;18.90;99.90
38582;DHT22;24349;53.720;10.014;2023-09-07T05:54:34;18.90;99.90
38582;DHT22;24349;53.720;10.014;2023-09-07T05:57:00;18.90;99.90
38582;DHT22;24349;53.720;10.014;2023-09-07T05:59:26;19.00;99.90
38582;DHT22;24349;53.720;10.014;2023-09-07T06:01:51;19.10;99.90
38582;DHT22;24349;53.720;10.014;2023-09-07T06:04:17;19.20;99.90
38582;DHT22;24349;53.720;10.014;2023-09-07T06:06:43;19.50;99.90
38582;DHT22;24349;53.720;10.014;2023-09-07T06:09:08;19.60;99.90
38582;DHT22;24349;53.720;10.014;2023-09-07T06:11:34;19.70;99.90
38582;DHT22;24349;53.720;10.014;2023-09-07T06:14:00;19.80;99.90
38582;DHT22;24349;53.720;10.014;2023-09-07T06:16:25;20.10;99.90
38582;DHT22;24349;53.720;10.014;2023-09-07T06:18:51;20.40;99.90
38582;DHT22;24349;53.720;10.014;2023-09-07T06:21:17;20.70;99.90
38582;DHT22;24349;53.720;10.014;2023-09-07T06:23:43;20.80;99.90
38582;DHT22;24349;53.720;10.014;2023-09-07T06:26:08;21.20;99.90
38582;DHT22;24349;53.720;10.014;2023-09-07T06:28:34;21.50;99.90
38582;DHT22;24349;53.720;10.014;2023-09-07T06:31:00;21.80;99.90
38582;DHT22;24349;53.720;10.014;2023-09-07T06:33:25;22.40;99.90
38582;DHT22;24349;53.720;10.014;2023-09-07T06:35:51;22.70;99.90
38582;DHT22;24349;53.720;10.014;2023-09-07T06:38:17;22.90;99.90
38582;DHT22;24349;53.720;10.014;2023-09-07T06:40:48;23.10;99.90
38582;DHT22;24349;53.720;10.014;2023-09-07T06:43:14;23.20;99.90
38582;DHT22;24349;53.720;10.014;2023-09-07T06:45:39;23.20;99.90
38582;DHT22;24349;53.720;10.014;2023-09-07T06:48:05;22.90;99.90
38582;DHT22;24349;53.720;10.014;2023-09-07T06:50:31;23.10;99.90
38582;DHT22;24349;53.720;10.014;2023-09-07T06:52:56;23.40;99.90
38582;DHT22;24349;53.720;10.014;2023-09-07T06:55:22;23.70;99.90
38582;DHT22;24349;53.720;10.014;2023-09-07T06:57:50;23.90;99.90
38582;DHT22;24349;53.720;10.014;2023-09-07T07:00:16;24.30;99.90
38582;DHT22;24349;53.720;10.014;2023-09-07T07:02:42;24.20;99.90
38582;DHT22;24349;53.720;10.014;2023-09-07T07:05:08;24.60;99.90
38582;DHT22;24349;53.720;10.014;2023-09-07T07:07:34;25.00;99.90
38582;DHT22;24349;53.720;10.014;2023-09-07T07:10:00;25.20;99.90
38582;DHT22;24349;53.720;10.014;2023-09-07T07:12:25;25.50;99.90
38582;DHT22;24349;53.720;10.014;2023-09-07T07:14:52;25.70;99.90
38582;DHT22;24349;53.720;10.014;2023-09-07T07:17:17;25.90;99.90
38582;DHT22;24349;53.720;10.014;2023-09-07T07:19:43;26.00;99.90
38582;DHT22;24349;53.720;10.014;2023-09-07T07:22:08;26.00;99.90
38582;DHT22;24349;53.720;10.014;2023-09-07T07:24:34;26.10;99.90
38582;DHT22;24349;53.720;10.014;2023-09-07T07:27:00;26.30;99.90
38582;DHT22;24349;53.720;10.014;2023-09-07T07:29:26;26.40;99.90
38582;DHT22;24349;53.720;10.014;2023-09-07T07:31:51;26.60;99.90
38582;DHT22;24349;53.720;10.014;2023-09-07T07:34:17;27.20;99.90
38582;DHT22;24349;53.720;10.014;2023-09-07T07:36:42;27.30;99.90
38582;DHT22;24349;53.720;10.014;2023-09-07T07:39:08;27.20;99.90
38582;DHT22;24349;53.720;10.014;2023-09-07T07:41:34;27.60;99.90
38582;DHT22;24349;53.720;10.014;2023-09-07T07:44:00;28.10;99.90
38582;DHT22;24349;53.720;10.014;2023-09-07T07:46:25;28.40;99.90
38582;DHT22;24349;53.720;10.014;2023-09-07T07:48:51;28.30;99.90
38582;DHT22;24349;53.720;10.014;2023-09-07T07:51:17;28.50;99.90
38582;DHT22;24349;53.720;10.014;2023-09-07T07:53:42;28.70;99.90
38582;DHT22;24349;53.720;10.014;2023-09-07T07:56:15;28.50;99.90
38582;DHT22;24349;53.720;10.014;2023-09-07T07:58:41;28.60;99.90
38582;DHT22;24349;53.720;10.014;2023-09-07T08:01:18;29.00;99.90
38582;DHT22;24349;53.720;10.014;2023-09-07T08:03:44;29.40;99.90
38582;DHT22;24349;53.720;10.014;2023-09-07T08:06:10;28.40;99.90
38582;DHT22;24349;53.720;10.014;2023-09-07T08:08:37;28.50;99.90
38582;DHT22;24349;53.720;10.014;2023-09-07T08:11:03;29.00;99.90
38582;DHT22;24349;53.720;10.014;2023-09-07T08:13:35;29.00;99.90
38582;DHT22;24349;53.720;10.014;2023-09-07T08:16:04;29.60;99.90
38582;DHT22;24349;53.720;10.014;2023-09-07T08:18:31;30.10;99.90
38582;DHT22;24349;53.720;10.014;2023-09-07T08:20:58;30.90;99.90
38582;DHT22;24349;53.720;10.014;2023-09-07T08:23:23;31.20;99.90
38582;DHT22;24349;53.720;10.014;2023-09-07T08:25:51;30.80;99.90
38582;DHT22;24349;53.720;10.014;2023-09-07T08:28:17;30.30;99.90
38582;DHT22;24349;53.720;10.014;2023-09-07T08:30:44;30.40;99.90
38582;DHT22;24349;53.720;10.014;2023-09-07T08:33:10;30.40;99.90
38582;DHT22;24349;53.720;10.014;2023-09-07T08:35:36;30.70;99.90
38582;DHT22;24349;53.720;10.014;2023-09-07T08:38:12;31.50;99.90
38582;DHT22;24349;53.720;10.014;2023-09-07T08:40:39;30.90;99.90
38582;DHT22;24349;53.720;10.014;2023-09-07T08:43:09;30.70;99.90
38582;DHT22;24349;53.720;10.014;2023-09-07T08:45:41;31.20;99.90
38582;DHT22;24349;53.720;10.014;2023-09-07T08:48:08;31.60;99.90
38582;DHT22;24349;53.720;10.014;2023-09-07T08:50:36;31.70;99.90
38582;DHT22;24349;53.720;10.014;2023-09-07T08:53:03;31.20;99.90
38582;DHT22;24349;53.720;10.014;2023-09-07T08:55:30;31.50;99.90
38582;DHT22;24349;53.720;10.014;2023-09-07T08:57:56;31.20;99.90
38582;DHT22;24349;53.720;10.014;2023-09-07T09:00:22;31.40;99.90
38582;DHT22;24349;53.720;10.014;2023-09-07T09:02:49;31.40;99.90
38582;DHT22;24349;53.720;10.014;2023-09-07T09:05:15;31.30;99.90
38582;DHT22;24349;53.720;10.014;2023-09-07T09:07:43;30.50;99.90
38582;DHT22;24349;53.720;10.014;2023-09-07T09:10:09;29.80;99.90
38582;DHT22;24349;53.720;10.014;2023-09-07T09:12:35;30.40;99.90
38582;DHT22;24349;53.720;10.014;2023-09-07T09:15:01;30.90;99.90
38582;DHT22;24349;53.720;10.014;2023-09-07T09:17:29;31.20;99.90
38582;DHT22;24349;53.720;10.014;2023-09-07T09:19:54;30.90;99.90
38582;DHT22;24349;53.720;10.014;2023-09-07T09:22:21;31.20;99.90
38582;DHT22;24349;53.720;10.014;2023-09-07T09:24:50;30.40;99.90
38582;DHT22;24349;53.720;10.014;2023-09-07T09:27:16;30.50;99.90
38582;DHT22;24349;53.720;10.014;2023-09-07T09:29:42;30.80;99.90
38582;DHT22;24349;53.720;10.014;2023-09-07T09:32:08;31.10;99.90
38582;DHT22;24349;53.720;10.014;2023-09-07T09:34:35;30.40;99.90
38582;DHT22;24349;53.720;10.014;2023-09-07T09:37:02;30.00;99.90
38582;DHT22;24349;53.720;10.014;2023-09-07T09:39:31;30.40;99.90
38582;DHT22;24349;53.720;10.014;2023-09-07T09:41:57;30.80;99.90
38582;DHT22;24349;53.720;10.014;2023-09-07T09:44:24;30.40;99.90
38582;DHT22;24349;53.720;10.014;2023-09-07T09:46:53;29.60;99.90
38582;DHT22;24349;53.720;10.014;2023-09-07T09:49:23;29.90;99.90
38582;DHT22;24349;53.720;10.014;2023-09-07T09:51:49;30.10;99.90
38582;DHT22;24349;53.720;10.014;2023-09-07T09:54:18;29.80;99.90
38582;DHT22;24349;53.720;10.014;2023-09-07T09:56:44;30.20;99.90
38582;DHT22;24349;53.720;10.014;2023-09-07T09:59:14;30.80;99.90
38582;DHT22;24349;53.720;10.014;2023-09-07T10:01:49;31.40;99.90
38582;DHT22;24349;53.720;10.014;2023-09-07T10:04:17;31.50;99.90
38582;DHT22;24349;53.720;10.014;2023-09-07T10:06:54;31.80;99.30
38582;DHT22;24349;53.720;10.014;2023-09-07T10:09:20;31.90;99.70
38582;DHT22;24349;53.720;10.014;2023-09-07T10:11:52;31.30;99.10
38582;DHT22;24349;53.720;10.014;2023-09-07T10:14:18;31.10;99.90
38582;DHT22;24349;53.720;10.014;2023-09-07T10:16:46;30.60;99.30
38582;DHT22;24349;53.720;10.014;2023-09-07T10:19:25;30.40;99.90
38582;DHT22;24349;53.720;10.014;2023-09-07T10:21:54;29.90;99.90
38582;DHT22;24349;53.720;10.014;2023-09-07T10:24:29;29.40;99.90
38582;DHT22;24349;53.720;10.014;2023-09-07T10:27:02;30.10;99.70
38582;DHT22;24349;53.720;10.014;2023-09-07T10:29:44;30.10;99.00
38582;DHT22;24349;53.720;10.014;2023-09-07T10:32:10;30.30;99.90
38582;DHT22;24349;53.720;10.014;2023-09-07T10:34:38;30.40;99.40
38582;DHT22;24349;53.720;10.014;2023-09-07T10:37:05;30.30;99.20
38582;DHT22;24349;53.720;10.014;2023-09-07T10:39:34;30.00;99.80
38582;DHT22;24349;53.720;10.014;2023-09-07T10:41:59;30.10;99.60
38582;DHT22;24349;53.720;10.014;2023-09-07T10:44:26;30.80;99.90
38582;DHT22;24349;53.720;10.014;2023-09-07T10:46:54;30.30;99.90
38582;DHT22;24349;53.720;10.014;2023-09-07T10:49:19;30.60;99.90
38582;DHT22;24349;53.720;10.014;2023-09-07T10:51:46;30.80;99.80
38582;DHT22;24349;53.720;10.014;2023-09-07T10:54:23;30.90;99.30
38582;DHT22;24349;53.720;10.014;2023-09-07T10:56:49;31.30;99.40
38582;DHT22;24349;53.720;10.014;2023-09-07T10:59:16;31.10;99.00
38582;DHT22;24349;53.720;10.014;2023-09-07T11:01:44;30.40;97.60
38582;DHT22;24349;53.720;10.014;2023-09-07T11:04:09;29.70;98.80
38582;DHT22;24349;53.720;10.014;2023-09-07T11:06:37;30.10;98.10
38582;DHT22;24349;53.720;10.014;2023-09-07T11:09:04;30.40;97.50
38582;DHT22;24349;53.720;10.014;2023-09-07T11:11:32;30.60;97.90
38582;DHT22;24349;53.720;10.014;2023-09-07T11:13:59;31.20;97.60
38582;DHT22;24349;53.720;10.014;2023-09-07T11:16:25;31.40;97.20
38582;DHT22;24349;53.720;10.014;2023-09-07T11:18:52;31.10;97.50
38582;DHT22;24349;53.720;10.014;2023-09-07T11:21:20;31.20;97.00
38582;DHT22;24349;53.720;10.014;2023-09-07T11:23:46;31.90;96.40
38582;DHT22;24349;53.720;10.014;2023-09-07T11:26:11;32.00;95.30
38582;DHT22;24349;53.720;10.014;2023-09-07T11:28:38;32.20;95.00
38582;DHT22;24349;53.720;10.014;2023-09-07T11:31:04;32.10;94.70
38582;DHT22;24349;53.720;10.014;2023-09-07T11:33:33;32.10;95.40
38582;DHT22;24349;53.720;10.014;2023-09-07T11:35:59;32.70;95.50
38582;DHT22;24349;53.720;10.014;2023-09-07T11:38:30;33.00;93.90
38582;DHT22;24349;53.720;10.014;2023-09-07T11:41:00;33.10;94.20
38582;DHT22;24349;53.720;10.014;2023-09-07T11:43:26;32.80;93.40
38582;DHT22;24349;53.720;10.014;2023-09-07T11:45:51;32.30;92.70
38582;DHT22;24349;53.720;10.014;2023-09-07T11:48:17;31.70;93.20
38582;DHT22;24349;53.720;10.014;2023-09-07T11:50:43;32.30;93.50
38582;DHT22;24349;53.720;10.014;2023-09-07T11:53:09;32.70;94.00
38582;DHT22;24349;53.720;10.014;2023-09-07T11:55:35;33.20;93.10
38582;DHT22;24349;53.720;10.014;2023-09-07T11:58:02;33.60;92.40
38582;DHT22;24349;53.720;10.014;2023-09-07T12:00:27;33.80;92.80
38582;DHT22;24349;53.720;10.014;2023-09-07T12:02:54;34.10;92.10
38582;DHT22;24349;53.720;10.014;2023-09-07T12:05:20;33.90;91.60
38582;DHT22;24349;53.720;10.014;2023-09-07T12:07:46;34.10;91.20
38582;DHT22;24349;53.720;10.014;2023-09-07T12:10:12;33.70;93.00
38582;DHT22;24349;53.720;10.014;2023-09-07T12:12:43;34.10;91.80
38582;DHT22;24349;53.720;10.014;2023-09-07T12:15:10;34.40;91.10
38582;DHT22;24349;53.720;10.014;2023-09-07T12:17:39;34.30;90.40
38582;DHT22;24349;53.720;10.014;2023-09-07T12:20:05;33.60;90.90
38582;DHT22;24349;53.720;10.014;2023-09-07T12:22:38;33.60;90.60
38582;DHT22;24349;53.720;10.014;2023-09-07T12:25:07;33.20;91.20
38582;DHT22;24349;53.720;10.014;2023-09-07T12:27:33;33.40;91.50
38582;DHT22;24349;53.720;10.014;2023-09-07T12:30:00;33.50;90.80
38582;DHT22;24349;53.720;10.014;2023-09-07T12:32:25;33.80;91.90
38582;DHT22;24349;53.720;10.014;2023-09-07T12:34:51;33.60;90.40
38582;DHT22;24349;53.720;10.014;2023-09-07T12:37:19;33.10;90.30
38582;DHT22;24349;53.720;10.014;2023-09-07T12:39:49;32.70;90.30
38582;DHT22;24349;53.720;10.014;2023-09-07T12:42:14;33.30;90.50
38582;DHT22;24349;53.720;10.014;2023-09-07T12:44:40;33.50;88.40
38582;DHT22;24349;53.720;10.014;2023-09-07T12:47:06;32.60;90.00
38582;DHT22;24349;53.720;10.014;2023-09-07T12:49:31;33.30;90.30
38582;DHT22;24349;53.720;10.014;2023-09-07T12:51:57;33.80;89.60
38582;DHT22;24349;53.720;10.014;2023-09-07T12:54:22;33.50;87.20
38582;DHT22;24349;53.720;10.014;2023-09-07T12:56:49;32.70;86.00
38582;DHT22;24349;53.720;10.014;2023-09-07T12:59:14;32.60;87.00
38582;DHT22;24349;53.720;10.014;2023-09-07T13:01:40;33.20;90.00
38582;DHT22;24349;53.720;10.014;2023-09-07T13:04:06;33.60;86.50
38582;DHT22;24349;53.720;10.014;2023-09-07T13:06:31;33.90;87.90
38582;DHT22;24349;53.720;10.014;2023-09-07T13:08:57;34.40;87.80
38582;DHT22;24349;53.720;10.014;2023-09-07T13:11:23;35.10;87.70
38582;DHT22;24349;53.720;10.014;2023-09-07T13:13:48;34.40;86.10
38582;DHT22;24349;53.720;10.014;2023-09-07T13:16:14;34.00;87.00
38582;DHT22;24349;53.720;10.014;2023-09-07T13:18:40;34.00;87.00
38582;DHT22;24349;53.720;10.014;2023-09-07T13:21:05;33.90;86.80
38582;DHT22;24349;53.720;10.014;2023-09-07T13:23:32;33.90;85.50
38582;DHT22;24349;53.720;10.014;2023-09-07T13:25:58;34.50;86.40
38582;DHT22;24349;53.720;10.014;2023-09-07T13:28:25;34.50;85.20
38582;DHT22;24349;53.720;10.014;2023-09-07T13:30:51;34.10;83.90
38582;DHT22;24349;53.720;10.014;2023-09-07T13:33:17;34.50;83.40
38582;DHT22;24349;53.720;10.014;2023-09-07T13:35:43;34.00;83.00
38582;DHT22;24349;53.720;10.014;2023-09-07T13:38:09;33.10;83.10
38582;DHT22;24349;53.720;10.014;2023-09-07T13:40:35;32.60;84.20
38582;DHT22;24349;53.720;10.014;2023-09-07T13:43:01;32.00;84.30
38582;DHT22;24349;53.720;10.014;2023-09-07T13:45:26;32.10;86.00
38582;DHT22;24349;53.720;10.014;2023-09-07T13:47:54;31.80;84.60
38582;DHT22;24349;53.720;10.014;2023-09-07T13:50:20;31.90;87.00
38582;DHT22;24349;53.720;10.014;2023-09-07T13:52:46;31.90;86.80
38582;DHT22;24349;53.720;10.014;2023-09-07T13:55:11;32.00;86.50
38582;DHT22;24349;53.720;10.014;2023-09-07T13:57:37;31.80;86.70
38582;DHT22;24349;53.720;10.014;2023-09-07T14:00:03;31.60;87.50
38582;DHT22;24349;53.720;10.014;2023-09-07T14:02:31;31.30;84.50
38582;DHT22;24349;53.720;10.014;2023-09-07T14:04:58;30.60;86.70
38582;DHT22;24349;53.720;10.014;2023-09-07T14:07:24;30.80;87.00
38582;DHT22;24349;53.720;10.014;2023-09-07T14:09:52;30.80;88.40
38582;DHT22;24349;53.720;10.014;2023-09-07T14:12:17;31.00;87.40
38582;DHT22;24349;53.720;10.014;2023-09-07T14:14:43;31.20;87.40
38582;DHT22;24349;53.720;10.014;2023-09-07T14:17:09;30.80;87.20
38582;DHT22;24349;53.720;10.014;2023-09-07T14:19:34;30.80;88.20
38582;DHT22;24349;53.720;10.014;2023-09-07T14:22:00;30.60;87.10
38582;DHT22;24349;53.720;10.014;2023-09-07T14:24:25;30.40;86.90
38582;DHT22;24349;53.720;10.014;2023-09-07T14:26:51;30.50;89.60
38582;DHT22;24349;53.720;10.014;2023-09-07T14:29:17;30.50;87.50
38582;DHT22;24349;53.720;10.014;2023-09-07T14:31:43;30.60;89.70
38582;DHT22;24349;53.720;10.014;2023-09-07T14:34:12;30.80;88.90
38582;DHT22;24349;53.720;10.014;2023-09-07T14:36:38;30.90;86.60
38582;DHT22;24349;53.720;10.014;2023-09-07T14:39:07;30.80;88.30
38582;DHT22;24349;53.720;10.014;2023-09-07T14:41:34;30.80;87.70
38582;DHT22;24349;53.720;10.014;2023-09-07T14:44:00;30.80;86.20
38582;DHT22;24349;53.720;10.014;2023-09-07T14:46:26;30.80;86.90
38582;DHT22;24349;53.720;10.014;2023-09-07T14:48:52;30.50;86.70
38582;DHT22;24349;53.720;10.014;2023-09-07T14:51:18;30.10;86.00
38582;DHT22;24349;53.720;10.014;2023-09-07T14:53:44;30.20;86.40
38582;DHT22;24349;53.720;10.014;2023-09-07T14:56:11;30.30;87.30
38582;DHT22;24349;53.720;10.014;2023-09-07T14:58:36;30.30;87.50
38582;DHT22;24349;53.720;10.014;2023-09-07T15:01:02;30.20;88.50
38582;DHT22;24349;53.720;10.014;2023-09-07T15:03:29;30.20;87.80
38582;DHT22;24349;53.720;10.014;2023-09-07T15:05:54;30.10;86.30
38582;DHT22;24349;53.720;10.014;2023-09-07T15:08:20;30.10;86.50
38582;DHT22;24349;53.720;10.014;2023-09-07T15:10:46;30.10;85.90